sensor_id;sensor_type;location;lat;lon;timestamp;P1;durP1;ratioP1;P2;durP2;ratioP2
9150;SDS011;4610;50.006;7.490;2022-09-01T00:01:09;7.77;;;3.00;;
9150;SDS011;4610;50.006;7.490;2022-09-01T00:03:38;3.20;;;2.70;;
9150;SDS011;4610;50.006;7.490;2022-09-01T00:06:06;3.20;;;2.77;;
9150;SDS011;4610;50.006;7.490;2022-09-01T00:08:35;6.17;;;2.53;;
9150;SDS011;4610;50.006;7.490;2022-09-01T00:11:02;4.00;;;2.70;;
9150;SDS011;4610;50.006;7.490;2022-09-01T00:13:29;3.17;;;2.40;;
9150;SDS011;4610;50.006;7.490;2022-09-01T00:15:58;4.07;;;2.97;;
9150;SDS011;4610;50.006;7.490;2022-09-01T00:18:25;3.73;;;2.73;;
9150;SDS011;4610;50.006;7.490;2022-09-01T00:20:51;3.50;;;2.63;;
9150;SDS011;4610;50.006;7.490;2022-09-01T00:23:23;6.30;;;2.77;;
9150;SDS011;4610;50.006;7.490;2022-09-01T00:25:51;3.97;;;2.60;;
9150;SDS011;4610;50.006;7.490;2022-09-01T00:28:20;3.60;;;2.03;;
9150;SDS011;4610;50.006;7.490;2022-09-01T00:30:47;3.97;;;2.63;;
9150;SDS011;4610;50.006;7.490;2022-09-01T00:33:13;3.20;;;2.43;;
9150;SDS011;4610;50.006;7.490;2022-09-01T00:35:40;3.40;;;2.57;;
9150;SDS011;4610;50.006;7.490;2022-09-01T00:38:07;5.33;;;2.37;;
9150;SDS011;4610;50.006;7.490;2022-09-01T00:40:34;3.23;;;2.30;;
9150;SDS011;4610;50.006;7.490;2022-09-01T00:43:11;4.53;;;2.00;;
9150;SDS011;4610;50.006;7.490;2022-09-01T00:45:39;5.17;;;2.57;;
9150;SDS011;4610;50.006;7.490;2022-09-01T00:48:07;2.90;;;2.27;;
9150;SDS011;4610;50.006;7.490;2022-09-01T00:50:33;2.70;;;2.40;;
9150;SDS011;4610;50.006;7.490;2022-09-01T00:53:01;2.30;;;2.07;;
9150;SDS011;4610;50.006;7.490;2022-09-01T00:55:32;6.00;;;2.50;;
9150;SDS011;4610;50.006;7.490;2022-09-01T00:58:01;2.50;;;2.30;;
9150;SDS011;4610;50.006;7.490;2022-09-01T01:00:32;2.43;;;2.07;;
9150;SDS011;4610;50.006;7.490;2022-09-01T01:03:05;4.00;;;2.20;;
9150;SDS011;4610;50.006;7.490;2022-09-01T01:05:34;2.60;;;2.40;;
9150;SDS011;4610;50.006;7.490;2022-09-01T01:08:04;6.87;;;2.33;;
9150;SDS011;4610;50.006;7.490;2022-09-01T01:10:34;3.83;;;2.53;;
9150;SDS011;4610;50.006;7.490;2022-09-01T01:13:05;7.93;;;2.40;;
9150;SDS011;4610;50.006;7.490;2022-09-01T01:15:35;2.60;;;2.20;;
9150;SDS011;4610;50.006;7.490;2022-09-01T01:18:03;2.83;;;2.20;;
9150;SDS011;4610;50.006;7.490;2022-09-01T01:20:30;3.30;;;2.33;;
9150;SDS011;4610;50.006;7.490;2022-09-01T01:23:34;2.53;;;2.03;;
9150;SDS011;4610;50.006;7.490;2022-09-01T01:26:07;4.27;;;2.30;;
9150;SDS011;4610;50.006;7.490;2022-09-01T01:28:36;3.43;;;2.53;;
9150;SDS011;4610;50.006;7.490;2022-09-01T01:31:06;2.87;;;2.43;;
9150;SDS011;4610;50.006;7.490;2022-09-01T01:33:37;3.00;;;2.07;;
9150;SDS011;4610;50.006;7.490;2022-09-01T01:36:06;5.47;;;2.50;;
9150;SDS011;4610;50.006;7.490;2022-09-01T01:38:37;2.30;;;2.10;;
9150;SDS011;4610;50.006;7.490;2022-09-01T01:41:08;2.73;;;2.17;;
9150;SDS011;4610;50.006;7.490;2022-09-01T01:43:35;3.17;;;2.30;;
9150;SDS011;4610;50.006;7.490;2022-09-01T01:46:02;2.80;;;2.20;;
9150;SDS011;4610;50.006;7.490;2022-09-01T01:48:32;4.50;;;2.40;;
9150;SDS011;4610;50.006;7.490;2022-09-01T01:51:01;6.43;;;2.17;;
9150;SDS011;4610;50.006;7.490;2022-09-01T01:53:29;4.23;;;2.27;;
9150;SDS011;4610;50.006;7.490;2022-09-01T01:55:56;4.43;;;2.33;;
9150;SDS011;4610;50.006;7.490;2022-09-01T01:58:25;2.60;;;2.30;;
9150;SDS011;4610;50.006;7.490;2022-09-01T02:00:53;3.77;;;2.40;;
9150;SDS011;4610;50.006;7.490;2022-09-01T02:03:25;2.30;;;2.10;;
9150;SDS011;4610;50.006;7.490;2022-09-01T02:06:02;3.63;;;2.50;;
9150;SDS011;4610;50.006;7.490;2022-09-01T02:08:34;3.87;;;2.13;;
9150;SDS011;4610;50.006;7.490;2022-09-01T02:11:02;3.13;;;2.30;;
9150;SDS011;4610;50.006;7.490;2022-09-01T02:13:31;4.50;;;2.73;;
9150;SDS011;4610;50.006;7.490;2022-09-01T02:15:59;3.70;;;2.40;;
9150;SDS011;4610;50.006;7.490;2022-09-01T02:18:30;2.77;;;2.20;;
9150;SDS011;4610;50.006;7.490;2022-09-01T02:21:00;2.40;;;2.20;;
9150;SDS011;4610;50.006;7.490;2022-09-01T02:23:27;2.97;;;2.13;;
9150;SDS011;4610;50.006;7.490;2022-09-01T02:25:55;2.37;;;2.10;;
9150;SDS011;4610;50.006;7.490;2022-09-01T02:28:25;3.47;;;2.43;;
9150;SDS011;4610;50.006;7.490;2022-09-01T02:30:54;3.33;;;2.40;;
9150;SDS011;4610;50.006;7.490;2022-09-01T02:33:22;4.67;;;2.30;;
9150;SDS011;4610;50.006;7.490;2022-09-01T02:35:50;4.37;;;2.43;;
9150;SDS011;4610;50.006;7.490;2022-09-01T02:38:18;4.10;;;2.30;;
9150;SDS011;4610;50.006;7.490;2022-09-01T02:40:50;5.00;;;2.50;;
9150;SDS011;4610;50.006;7.490;2022-09-01T02:43:18;2.90;;;2.30;;
9150;SDS011;4610;50.006;7.490;2022-09-01T02:45:45;2.33;;;2.13;;
9150;SDS011;4610;50.006;7.490;2022-09-01T02:48:17;2.63;;;2.40;;
9150;SDS011;4610;50.006;7.490;2022-09-01T02:50:46;2.60;;;2.30;;
9150;SDS011;4610;50.006;7.490;2022-09-01T02:53:13;2.80;;;2.33;;
9150;SDS011;4610;50.006;7.490;2022-09-01T02:55:41;2.97;;;2.30;;
9150;SDS011;4610;50.006;7.490;2022-09-01T02:58:08;3.47;;;2.37;;
9150;SDS011;4610;50.006;7.490;2022-09-01T03:00:40;3.53;;;2.10;;
9150;SDS011;4610;50.006;7.490;2022-09-01T03:03:07;3.33;;;2.37;;
9150;SDS011;4610;50.006;7.490;2022-09-01T03:05:38;5.80;;;2.00;;
9150;SDS011;4610;50.006;7.490;2022-09-01T03:08:06;3.20;;;2.27;;
9150;SDS011;4610;50.006;7.490;2022-09-01T03:10:40;2.67;;;2.23;;
9150;SDS011;4610;50.006;7.490;2022-09-01T03:13:09;5.13;;;2.30;;
9150;SDS011;4610;50.006;7.490;2022-09-01T03:15:38;3.63;;;2.30;;
9150;SDS011;4610;50.006;7.490;2022-09-01T03:18:05;2.53;;;2.20;;
9150;SDS011;4610;50.006;7.490;2022-09-01T03:20:34;2.50;;;2.30;;
9150;SDS011;4610;50.006;7.490;2022-09-01T03:23:05;3.00;;;2.27;;
9150;SDS011;4610;50.006;7.490;2022-09-01T03:25:33;3.23;;;2.40;;
9150;SDS011;4610;50.006;7.490;2022-09-01T03:28:01;4.63;;;2.43;;
9150;SDS011;4610;50.006;7.490;2022-09-01T03:30:29;3.67;;;2.37;;
9150;SDS011;4610;50.006;7.490;2022-09-01T03:32:56;2.70;;;2.40;;
9150;SDS011;4610;50.006;7.490;2022-09-01T03:35:23;3.57;;;2.00;;
9150;SDS011;4610;50.006;7.490;2022-09-01T03:37:52;2.80;;;2.20;;
9150;SDS011;4610;50.006;7.490;2022-09-01T03:40:21;4.87;;;2.33;;
9150;SDS011;4610;50.006;7.490;2022-09-01T03:42:48;2.27;;;2.07;;
9150;SDS011;4610;50.006;7.490;2022-09-01T03:45:18;3.07;;;2.33;;
9150;SDS011;4610;50.006;7.490;2022-09-01T03:47:45;2.97;;;2.10;;
9150;SDS011;4610;50.006;7.490;2022-09-01T03:50:12;4.80;;;2.40;;
9150;SDS011;4610;50.006;7.490;2022-09-01T03:52:44;2.80;;;2.47;;
9150;SDS011;4610;50.006;7.490;2022-09-01T03:55:12;5.97;;;2.30;;
9150;SDS011;4610;50.006;7.490;2022-09-01T03:57:43;2.50;;;2.23;;
9150;SDS011;4610;50.006;7.490;2022-09-01T04:00:11;2.23;;;2.03;;
9150;SDS011;4610;50.006;7.490;2022-09-01T04:02:47;3.30;;;2.10;;
9150;SDS011;4610;50.006;7.490;2022-09-01T04:05:15;2.50;;;2.23;;
9150;SDS011;4610;50.006;7.490;2022-09-01T04:07:42;2.50;;;2.30;;
9150;SDS011;4610;50.006;7.490;2022-09-01T04:10:10;3.10;;;2.20;;
9150;SDS011;4610;50.006;7.490;2022-09-01T04:12:37;4.47;;;2.60;;
9150;SDS011;4610;50.006;7.490;2022-09-01T04:15:06;2.87;;;2.10;;
9150;SDS011;4610;50.006;7.490;2022-09-01T04:17:34;5.73;;;2.30;;
9150;SDS011;4610;50.006;7.490;2022-09-01T04:20:18;2.53;;;2.17;;
9150;SDS011;4610;50.006;7.490;2022-09-01T04:22:46;2.60;;;2.10;;
9150;SDS011;4610;50.006;7.490;2022-09-01T04:25:14;4.50;;;2.20;;
9150;SDS011;4610;50.006;7.490;2022-09-01T04:27:41;2.40;;;2.20;;
9150;SDS011;4610;50.006;7.490;2022-09-01T04:30:13;3.20;;;2.43;;
9150;SDS011;4610;50.006;7.490;2022-09-01T04:32:39;7.13;;;2.50;;
9150;SDS011;4610;50.006;7.490;2022-09-01T04:35:08;5.30;;;2.20;;
9150;SDS011;4610;50.006;7.490;2022-09-01T04:37:40;3.00;;;2.47;;
9150;SDS011;4610;50.006;7.490;2022-09-01T04:40:08;4.53;;;2.60;;
9150;SDS011;4610;50.006;7.490;2022-09-01T04:42:38;7.27;;;2.57;;
9150;SDS011;4610;50.006;7.490;2022-09-01T04:45:06;3.63;;;2.27;;
9150;SDS011;4610;50.006;7.490;2022-09-01T04:47:36;3.67;;;2.33;;
9150;SDS011;4610;50.006;7.490;2022-09-01T04:50:06;3.27;;;2.30;;
9150;SDS011;4610;50.006;7.490;2022-09-01T04:52:38;6.23;;;2.30;;
9150;SDS011;4610;50.006;7.490;2022-09-01T04:55:06;2.53;;;2.10;;
9150;SDS011;4610;50.006;7.490;2022-09-01T04:57:41;5.67;;;2.30;;
9150;SDS011;4610;50.006;7.490;2022-09-01T05:00:11;6.80;;;2.40;;
9150;SDS011;4610;50.006;7.490;2022-09-01T05:02:47;4.60;;;2.43;;
9150;SDS011;4610;50.006;7.490;2022-09-01T05:05:16;3.83;;;2.40;;
9150;SDS011;4610;50.006;7.490;2022-09-01T05:07:43;5.33;;;2.50;;
9150;SDS011;4610;50.006;7.490;2022-09-01T05:10:10;2.77;;;2.30;;
9150;SDS011;4610;50.006;7.490;2022-09-01T05:12:38;3.70;;;2.37;;
9150;SDS011;4610;50.006;7.490;2022-09-01T05:15:05;2.60;;;2.40;;
9150;SDS011;4610;50.006;7.490;2022-09-01T05:17:33;2.53;;;2.33;;
9150;SDS011;4610;50.006;7.490;2022-09-01T05:20:04;2.53;;;2.10;;
9150;SDS011;4610;50.006;7.490;2022-09-01T05:22:32;3.27;;;2.17;;
9150;SDS011;4610;50.006;7.490;2022-09-01T05:25:00;2.83;;;2.40;;
9150;SDS011;4610;50.006;7.490;2022-09-01T05:27:29;2.50;;;2.30;;
9150;SDS011;4610;50.006;7.490;2022-09-01T05:29:56;3.87;;;2.40;;
9150;SDS011;4610;50.006;7.490;2022-09-01T05:32:24;3.63;;;2.30;;
9150;SDS011;4610;50.006;7.490;2022-09-01T05:34:51;2.70;;;1.90;;
9150;SDS011;4610;50.006;7.490;2022-09-01T05:37:19;3.40;;;2.50;;
9150;SDS011;4610;50.006;7.490;2022-09-01T05:39:46;3.10;;;1.83;;
9150;SDS011;4610;50.006;7.490;2022-09-01T05:42:14;2.87;;;2.20;;
9150;SDS011;4610;50.006;7.490;2022-09-01T05:44:41;3.00;;;1.80;;
9150;SDS011;4610;50.006;7.490;2022-09-01T05:47:08;4.40;;;1.97;;
9150;SDS011;4610;50.006;7.490;2022-09-01T05:49:36;4.17;;;2.30;;
9150;SDS011;4610;50.006;7.490;2022-09-01T05:52:04;4.93;;;2.10;;
9150;SDS011;4610;50.006;7.490;2022-09-01T05:54:34;5.37;;;1.90;;
9150;SDS011;4610;50.006;7.490;2022-09-01T05:57:02;2.70;;;1.73;;
9150;SDS011;4610;50.006;7.490;2022-09-01T05:59:31;3.00;;;2.00;;
9150;SDS011;4610;50.006;7.490;2022-09-01T06:01:58;1.90;;;1.70;;
9150;SDS011;4610;50.006;7.490;2022-09-01T06:04:25;1.90;;;1.60;;
9150;SDS011;4610;50.006;7.490;2022-09-01T06:06:52;2.57;;;1.87;;
9150;SDS011;4610;50.006;7.490;2022-09-01T06:09:21;2.73;;;1.80;;
9150;SDS011;4610;50.006;7.490;2022-09-01T06:11:49;2.30;;;1.80;;
9150;SDS011;4610;50.006;7.490;2022-09-01T06:14:17;3.23;;;1.77;;
9150;SDS011;4610;50.006;7.490;2022-09-01T06:16:44;2.23;;;1.80;;
9150;SDS011;4610;50.006;7.490;2022-09-01T06:19:12;4.00;;;2.00;;
9150;SDS011;4610;50.006;7.490;2022-09-01T06:21:39;2.33;;;1.80;;
9150;SDS011;4610;50.006;7.490;2022-09-01T06:24:06;1.93;;;1.60;;
9150;SDS011;4610;50.006;7.490;2022-09-01T06:26:34;2.80;;;1.73;;
9150;SDS011;4610;50.006;7.490;2022-09-01T06:29:05;2.77;;;1.70;;
9150;SDS011;4610;50.006;7.490;2022-09-01T06:31:34;3.37;;;1.77;;
9150;SDS011;4610;50.006;7.490;2022-09-01T06:34:03;2.57;;;1.83;;
9150;SDS011;4610;50.006;7.490;2022-09-01T06:36:33;2.60;;;2.03;;
9150;SDS011;4610;50.006;7.490;2022-09-01T06:39:01;4.07;;;1.80;;
9150;SDS011;4610;50.006;7.490;2022-09-01T06:41:29;1.63;;;1.40;;
9150;SDS011;4610;50.006;7.490;2022-09-01T06:43:56;5.50;;;1.50;;
9150;SDS011;4610;50.006;7.490;2022-09-01T06:46:25;1.90;;;1.70;;
9150;SDS011;4610;50.006;7.490;2022-09-01T06:48:53;2.57;;;1.60;;
9150;SDS011;4610;50.006;7.490;2022-09-01T06:51:22;3.50;;;1.63;;
9150;SDS011;4610;50.006;7.490;2022-09-01T06:53:52;3.03;;;1.60;;
9150;SDS011;4610;50.006;7.490;2022-09-01T06:56:23;2.23;;;1.60;;
9150;SDS011;4610;50.006;7.490;2022-09-01T06:58:52;3.40;;;1.70;;
9150;SDS011;4610;50.006;7.490;2022-09-01T07:01:19;3.90;;;1.80;;
9150;SDS011;4610;50.006;7.490;2022-09-01T07:03:50;3.37;;;1.70;;
9150;SDS011;4610;50.006;7.490;2022-09-01T07:06:18;2.33;;;1.63;;
9150;SDS011;4610;50.006;7.490;2022-09-01T07:08:49;3.87;;;1.67;;
9150;SDS011;4610;50.006;7.490;2022-09-01T07:11:18;3.40;;;1.80;;
9150;SDS011;4610;50.006;7.490;2022-09-01T07:13:51;2.77;;;1.70;;
9150;SDS011;4610;50.006;7.490;2022-09-01T07:16:21;2.73;;;1.70;;
9150;SDS011;4610;50.006;7.490;2022-09-01T07:18:50;4.10;;;1.90;;
9150;SDS011;4610;50.006;7.490;2022-09-01T07:21:20;2.83;;;1.60;;
9150;SDS011;4610;50.006;7.490;2022-09-01T07:23:47;4.37;;;1.87;;
9150;SDS011;4610;50.006;7.490;2022-09-01T07:26:15;2.30;;;1.60;;
9150;SDS011;4610;50.006;7.490;2022-09-01T07:28:43;4.53;;;1.70;;
9150;SDS011;4610;50.006;7.490;2022-09-01T07:31:15;3.07;;;1.70;;
9150;SDS011;4610;50.006;7.490;2022-09-01T07:33:45;2.70;;;1.53;;
9150;SDS011;4610;50.006;7.490;2022-09-01T07:36:14;4.37;;;1.90;;
9150;SDS011;4610;50.006;7.490;2022-09-01T07:38:41;4.57;;;1.80;;
9150;SDS011;4610;50.006;7.490;2022-09-01T07:41:08;4.30;;;1.90;;
9150;SDS011;4610;50.006;7.490;2022-09-01T07:43:37;3.03;;;1.80;;
9150;SDS011;4610;50.006;7.490;2022-09-01T07:46:06;3.23;;;1.90;;
9150;SDS011;4610;50.006;7.490;2022-09-01T07:48:33;2.87;;;1.80;;
9150;SDS011;4610;50.006;7.490;2022-09-01T07:51:00;4.47;;;1.83;;
9150;SDS011;4610;50.006;7.490;2022-09-01T07:53:30;2.57;;;1.90;;
9150;SDS011;4610;50.006;7.490;2022-09-01T07:56:05;3.23;;;1.80;;
9150;SDS011;4610;50.006;7.490;2022-09-01T07:58:35;4.37;;;2.23;;
9150;SDS011;4610;50.006;7.490;2022-09-01T08:01:05;5.03;;;2.33;;
9150;SDS011;4610;50.006;7.490;2022-09-01T08:03:33;3.63;;;2.13;;
9150;SDS011;4610;50.006;7.490;2022-09-01T08:06:02;2.27;;;1.90;;
9150;SDS011;4610;50.006;7.490;2022-09-01T08:08:33;3.43;;;2.10;;
9150;SDS011;4610;50.006;7.490;2022-09-01T08:11:00;6.37;;;2.50;;
9150;SDS011;4610;50.006;7.490;2022-09-01T08:13:27;4.33;;;2.00;;
9150;SDS011;4610;50.006;7.490;2022-09-01T08:15:54;2.53;;;2.00;;
9150;SDS011;4610;50.006;7.490;2022-09-01T08:18:21;2.90;;;2.30;;
9150;SDS011;4610;50.006;7.490;2022-09-01T08:20:48;5.30;;;2.73;;
9150;SDS011;4610;50.006;7.490;2022-09-01T08:23:16;4.43;;;2.20;;
9150;SDS011;4610;50.006;7.490;2022-09-01T08:25:45;3.07;;;2.00;;
9150;SDS011;4610;50.006;7.490;2022-09-01T08:28:13;5.63;;;2.60;;
9150;SDS011;4610;50.006;7.490;2022-09-01T08:30:41;7.30;;;2.30;;
9150;SDS011;4610;50.006;7.490;2022-09-01T08:33:09;4.30;;;2.50;;
9150;SDS011;4610;50.006;7.490;2022-09-01T08:35:38;3.57;;;2.40;;
9150;SDS011;4610;50.006;7.490;2022-09-01T08:38:05;3.60;;;2.10;;
9150;SDS011;4610;50.006;7.490;2022-09-01T08:40:32;6.63;;;2.80;;
9150;SDS011;4610;50.006;7.490;2022-09-01T08:43:04;5.50;;;2.20;;
9150;SDS011;4610;50.006;7.490;2022-09-01T08:45:41;4.53;;;2.20;;
9150;SDS011;4610;50.006;7.490;2022-09-01T08:48:15;2.33;;;2.13;;
9150;SDS011;4610;50.006;7.490;2022-09-01T08:50:46;4.60;;;2.33;;
9150;SDS011;4610;50.006;7.490;2022-09-01T08:53:20;3.43;;;2.23;;
9150;SDS011;4610;50.006;7.490;2022-09-01T08:55:53;10.13;;;2.30;;
9150;SDS011;4610;50.006;7.490;2022-09-01T08:58:23;3.60;;;2.53;;
9150;SDS011;4610;50.006;7.490;2022-09-01T09:00:53;10.50;;;2.30;;
9150;SDS011;4610;50.006;7.490;2022-09-01T09:03:25;8.23;;;2.07;;
9150;SDS011;4610;50.006;7.490;2022-09-01T09:06:05;3.37;;;2.30;;
9150;SDS011;4610;50.006;7.490;2022-09-01T09:08:53;4.57;;;2.30;;
9150;SDS011;4610;50.006;7.490;2022-09-01T09:11:32;5.93;;;1.97;;
9150;SDS011;4610;50.006;7.490;2022-09-01T09:14:18;4.50;;;2.47;;
9150;SDS011;4610;50.006;7.490;2022-09-01T09:16:55;2.17;;;1.97;;
9150;SDS011;4610;50.006;7.490;2022-09-01T09:19:23;3.77;;;2.33;;
9150;SDS011;4610;50.006;7.490;2022-09-01T09:21:53;3.40;;;2.37;;
9150;SDS011;4610;50.006;7.490;2022-09-01T09:24:23;4.90;;;2.47;;
9150;SDS011;4610;50.006;7.490;2022-09-01T09:26:53;6.53;;;2.83;;
9150;SDS011;4610;50.006;7.490;2022-09-01T09:29:24;4.80;;;2.23;;
9150;SDS011;4610;50.006;7.490;2022-09-01T09:32:00;4.33;;;2.23;;
9150;SDS011;4610;50.006;7.490;2022-09-01T09:34:30;2.43;;;2.20;;
9150;SDS011;4610;50.006;7.490;2022-09-01T09:37:15;7.97;;;2.50;;
9150;SDS011;4610;50.006;7.490;2022-09-01T09:42:39;4.37;;;3.03;;
9150;SDS011;4610;50.006;7.490;2022-09-01T09:45:20;3.13;;;2.00;;
9150;SDS011;4610;50.006;7.490;2022-09-01T09:47:48;4.43;;;2.53;;
9150;SDS011;4610;50.006;7.490;2022-09-01T09:50:18;3.33;;;2.43;;
9150;SDS011;4610;50.006;7.490;2022-09-01T09:52:48;3.70;;;2.90;;
9150;SDS011;4610;50.006;7.490;2022-09-01T09:55:18;4.90;;;3.20;;
9150;SDS011;4610;50.006;7.490;2022-09-01T09:57:48;3.43;;;2.67;;
9150;SDS011;4610;50.006;7.490;2022-09-01T10:00:19;5.60;;;2.93;;
9150;SDS011;4610;50.006;7.490;2022-09-01T10:02:50;4.87;;;3.27;;
9150;SDS011;4610;50.006;7.490;2022-09-01T10:05:26;3.73;;;2.60;;
9150;SDS011;4610;50.006;7.490;2022-09-01T10:07:59;4.73;;;2.17;;
9150;SDS011;4610;50.006;7.490;2022-09-01T10:10:27;5.63;;;2.80;;
9150;SDS011;4610;50.006;7.490;2022-09-01T10:12:57;2.93;;;2.40;;
9150;SDS011;4610;50.006;7.490;2022-09-01T10:15:27;4.10;;;2.30;;
9150;SDS011;4610;50.006;7.490;2022-09-01T10:17:58;4.00;;;2.67;;
9150;SDS011;4610;50.006;7.490;2022-09-01T10:20:30;4.43;;;2.63;;
9150;SDS011;4610;50.006;7.490;2022-09-01T10:22:58;5.83;;;2.50;;
9150;SDS011;4610;50.006;7.490;2022-09-01T10:25:27;4.57;;;2.70;;
9150;SDS011;4610;50.006;7.490;2022-09-01T10:28:01;5.53;;;2.20;;
9150;SDS011;4610;50.006;7.490;2022-09-01T10:30:36;4.73;;;2.27;;
9150;SDS011;4610;50.006;7.490;2022-09-01T10:33:07;2.90;;;2.30;;
9150;SDS011;4610;50.006;7.490;2022-09-01T10:35:35;4.13;;;2.37;;
9150;SDS011;4610;50.006;7.490;2022-09-01T10:38:05;4.73;;;2.60;;
9150;SDS011;4610;50.006;7.490;2022-09-01T10:40:38;2.50;;;2.23;;
9150;SDS011;4610;50.006;7.490;2022-09-01T10:46:10;4.70;;;2.20;;
9150;SDS011;4610;50.006;7.490;2022-09-01T10:49:12;3.20;;;2.20;;
9150;SDS011;4610;50.006;7.490;2022-09-01T10:51:45;5.90;;;2.37;;
9150;SDS011;4610;50.006;7.490;2022-09-01T10:57:39;2.57;;;2.23;;
9150;SDS011;4610;50.006;7.490;2022-09-01T11:09:23;2.20;;;1.90;;
9150;SDS011;4610;50.006;7.490;2022-09-01T11:12:01;4.60;;;2.53;;
9150;SDS011;4610;50.006;7.490;2022-09-01T11:14:48;6.70;;;2.40;;
9150;SDS011;4610;50.006;7.490;2022-09-01T11:17:17;4.63;;;1.90;;
9150;SDS011;4610;50.006;7.490;2022-09-01T11:19:54;4.50;;;2.03;;
9150;SDS011;4610;50.006;7.490;2022-09-01T11:22:28;3.03;;;1.90;;
9150;SDS011;4610;50.006;7.490;2022-09-01T11:25:11;2.83;;;2.23;;
9150;SDS011;4610;50.006;7.490;2022-09-01T11:28:00;2.10;;;1.70;;
9150;SDS011;4610;50.006;7.490;2022-09-01T11:30:33;3.80;;;1.90;;
9150;SDS011;4610;50.006;7.490;2022-09-01T11:33:10;2.20;;;2.00;;
9150;SDS011;4610;50.006;7.490;2022-09-01T11:35:55;4.67;;;1.70;;
9150;SDS011;4610;50.006;7.490;2022-09-01T11:38:24;2.00;;;1.77;;
9150;SDS011;4610;50.006;7.490;2022-09-01T11:40:55;2.57;;;1.80;;
9150;SDS011;4610;50.006;7.490;2022-09-01T11:43:22;4.20;;;2.13;;
9150;SDS011;4610;50.006;7.490;2022-09-01T11:45:54;3.83;;;1.93;;
9150;SDS011;4610;50.006;7.490;2022-09-01T11:48:28;2.87;;;2.00;;
9150;SDS011;4610;50.006;7.490;2022-09-01T11:50:57;3.20;;;2.00;;
9150;SDS011;4610;50.006;7.490;2022-09-01T11:53:26;5.93;;;2.03;;
9150;SDS011;4610;50.006;7.490;2022-09-01T11:55:54;5.27;;;2.03;;
9150;SDS011;4610;50.006;7.490;2022-09-01T11:58:36;3.43;;;2.00;;
9150;SDS011;4610;50.006;7.490;2022-09-01T12:01:11;7.73;;;2.40;;
9150;SDS011;4610;50.006;7.490;2022-09-01T12:03:40;3.23;;;1.83;;
9150;SDS011;4610;50.006;7.490;2022-09-01T12:06:10;4.63;;;2.13;;
9150;SDS011;4610;50.006;7.490;2022-09-01T12:08:38;5.30;;;2.20;;
9150;SDS011;4610;50.006;7.490;2022-09-01T12:11:08;3.27;;;2.30;;
9150;SDS011;4610;50.006;7.490;2022-09-01T12:13:38;3.13;;;2.30;;
9150;SDS011;4610;50.006;7.490;2022-09-01T12:16:07;4.77;;;2.10;;
9150;SDS011;4610;50.006;7.490;2022-09-01T12:18:36;3.93;;;2.33;;
9150;SDS011;4610;50.006;7.490;2022-09-01T12:21:16;3.30;;;1.90;;
9150;SDS011;4610;50.006;7.490;2022-09-01T12:23:47;3.10;;;2.37;;
9150;SDS011;4610;50.006;7.490;2022-09-01T12:26:14;3.90;;;2.23;;
9150;SDS011;4610;50.006;7.490;2022-09-01T12:28:44;4.00;;;2.33;;
9150;SDS011;4610;50.006;7.490;2022-09-01T12:31:14;3.37;;;2.07;;
9150;SDS011;4610;50.006;7.490;2022-09-01T12:33:42;5.03;;;1.90;;
9150;SDS011;4610;50.006;7.490;2022-09-01T12:36:17;3.73;;;1.80;;
9150;SDS011;4610;50.006;7.490;2022-09-01T12:38:46;3.27;;;2.00;;
9150;SDS011;4610;50.006;7.490;2022-09-01T12:41:23;5.57;;;2.07;;
9150;SDS011;4610;50.006;7.490;2022-09-01T12:43:52;3.97;;;2.20;;
9150;SDS011;4610;50.006;7.490;2022-09-01T12:49:16;6.53;;;2.20;;
9150;SDS011;4610;50.006;7.490;2022-09-01T12:51:46;2.30;;;1.93;;
9150;SDS011;4610;50.006;7.490;2022-09-01T12:54:13;2.23;;;1.80;;
9150;SDS011;4610;50.006;7.490;2022-09-01T12:56:45;3.20;;;1.93;;
9150;SDS011;4610;50.006;7.490;2022-09-01T12:59:14;3.43;;;2.20;;
9150;SDS011;4610;50.006;7.490;2022-09-01T13:01:48;4.27;;;2.10;;
9150;SDS011;4610;50.006;7.490;2022-09-01T13:04:22;2.20;;;2.00;;
9150;SDS011;4610;50.006;7.490;2022-09-01T13:06:54;2.17;;;1.90;;
9150;SDS011;4610;50.006;7.490;2022-09-01T13:09:21;2.67;;;2.00;;
9150;SDS011;4610;50.006;7.490;2022-09-01T13:11:48;5.13;;;2.10;;
9150;SDS011;4610;50.006;7.490;2022-09-01T13:14:15;3.97;;;2.37;;
9150;SDS011;4610;50.006;7.490;2022-09-01T13:16:43;4.57;;;2.10;;
9150;SDS011;4610;50.006;7.490;2022-09-01T13:19:10;2.50;;;2.10;;
9150;SDS011;4610;50.006;7.490;2022-09-01T13:21:36;3.23;;;2.10;;
9150;SDS011;4610;50.006;7.490;2022-09-01T13:24:05;2.40;;;1.83;;
9150;SDS011;4610;50.006;7.490;2022-09-01T13:26:33;3.20;;;2.20;;
9150;SDS011;4610;50.006;7.490;2022-09-01T13:29:00;2.83;;;1.90;;
9150;SDS011;4610;50.006;7.490;2022-09-01T13:31:27;2.30;;;2.10;;
9150;SDS011;4610;50.006;7.490;2022-09-01T13:33:55;2.90;;;2.10;;
9150;SDS011;4610;50.006;7.490;2022-09-01T13:36:22;7.07;;;2.20;;
9150;SDS011;4610;50.006;7.490;2022-09-01T13:38:49;2.30;;;2.10;;
9150;SDS011;4610;50.006;7.490;2022-09-01T13:41:17;2.57;;;1.80;;
9150;SDS011;4610;50.006;7.490;2022-09-01T13:43:44;5.53;;;3.20;;
9150;SDS011;4610;50.006;7.490;2022-09-01T13:46:11;5.10;;;2.93;;
9150;SDS011;4610;50.006;7.490;2022-09-01T13:48:39;4.37;;;2.97;;
9150;SDS011;4610;50.006;7.490;2022-09-01T13:51:06;5.90;;;3.10;;
9150;SDS011;4610;50.006;7.490;2022-09-01T13:53:34;4.30;;;2.90;;
9150;SDS011;4610;50.006;7.490;2022-09-01T13:56:01;7.37;;;3.10;;
9150;SDS011;4610;50.006;7.490;2022-09-01T13:58:29;5.83;;;2.97;;
9150;SDS011;4610;50.006;7.490;2022-09-01T14:00:56;4.20;;;2.93;;
9150;SDS011;4610;50.006;7.490;2022-09-01T14:03:24;5.37;;;3.30;;
9150;SDS011;4610;50.006;7.490;2022-09-01T14:05:51;5.17;;;3.33;;
9150;SDS011;4610;50.006;7.490;2022-09-01T14:08:18;3.60;;;2.63;;
9150;SDS011;4610;50.006;7.490;2022-09-01T14:10:48;4.63;;;2.60;;
9150;SDS011;4610;50.006;7.490;2022-09-01T14:13:16;3.87;;;2.40;;
9150;SDS011;4610;50.006;7.490;2022-09-01T14:15:46;8.83;;;2.60;;
9150;SDS011;4610;50.006;7.490;2022-09-01T14:18:13;3.87;;;2.80;;
9150;SDS011;4610;50.006;7.490;2022-09-01T14:20:41;3.50;;;2.90;;
9150;SDS011;4610;50.006;7.490;2022-09-01T14:23:09;5.97;;;2.60;;
9150;SDS011;4610;50.006;7.490;2022-09-01T14:25:40;3.27;;;2.50;;
9150;SDS011;4610;50.006;7.490;2022-09-01T14:28:07;2.67;;;2.40;;
9150;SDS011;4610;50.006;7.490;2022-09-01T14:30:34;5.63;;;2.70;;
9150;SDS011;4610;50.006;7.490;2022-09-01T14:33:03;3.57;;;2.80;;
9150;SDS011;4610;50.006;7.490;2022-09-01T14:35:32;5.47;;;2.37;;
9150;SDS011;4610;50.006;7.490;2022-09-01T14:37:59;3.73;;;2.77;;
9150;SDS011;4610;50.006;7.490;2022-09-01T14:40:29;5.17;;;3.17;;
9150;SDS011;4610;50.006;7.490;2022-09-01T14:42:56;5.33;;;2.37;;
9150;SDS011;4610;50.006;7.490;2022-09-01T14:45:23;3.10;;;2.50;;
9150;SDS011;4610;50.006;7.490;2022-09-01T14:47:53;4.43;;;2.43;;
9150;SDS011;4610;50.006;7.490;2022-09-01T14:50:24;7.70;;;2.87;;
9150;SDS011;4610;50.006;7.490;2022-09-01T14:52:52;3.17;;;2.53;;
9150;SDS011;4610;50.006;7.490;2022-09-01T14:55:20;2.80;;;2.10;;
9150;SDS011;4610;50.006;7.490;2022-09-01T14:57:47;4.00;;;2.70;;
9150;SDS011;4610;50.006;7.490;2022-09-01T15:00:14;3.90;;;3.20;;
9150;SDS011;4610;50.006;7.490;2022-09-01T15:02:42;4.33;;;2.80;;
9150;SDS011;4610;50.006;7.490;2022-09-01T15:05:10;3.23;;;2.30;;
9150;SDS011;4610;50.006;7.490;2022-09-01T15:07:39;3.40;;;2.67;;
9150;SDS011;4610;50.006;7.490;2022-09-01T15:10:07;5.80;;;3.07;;
9150;SDS011;4610;50.006;7.490;2022-09-01T15:12:35;3.50;;;2.37;;
9150;SDS011;4610;50.006;7.490;2022-09-01T15:15:04;2.83;;;2.37;;
9150;SDS011;4610;50.006;7.490;2022-09-01T15:17:31;4.77;;;2.40;;
9150;SDS011;4610;50.006;7.490;2022-09-01T15:19:59;2.93;;;2.23;;
9150;SDS011;4610;50.006;7.490;2022-09-01T15:22:48;3.87;;;2.60;;
9150;SDS011;4610;50.006;7.490;2022-09-01T15:25:15;3.90;;;3.00;;
9150;SDS011;4610;50.006;7.490;2022-09-01T15:27:43;3.53;;;2.63;;
9150;SDS011;4610;50.006;7.490;2022-09-01T15:30:11;2.73;;;2.30;;
9150;SDS011;4610;50.006;7.490;2022-09-01T15:32:41;7.33;;;2.20;;
9150;SDS011;4610;50.006;7.490;2022-09-01T15:35:11;6.83;;;4.47;;
9150;SDS011;4610;50.006;7.490;2022-09-01T15:37:39;5.27;;;2.50;;
9150;SDS011;4610;50.006;7.490;2022-09-01T15:40:08;4.33;;;2.80;;
9150;SDS011;4610;50.006;7.490;2022-09-01T15:42:35;4.80;;;3.17;;
9150;SDS011;4610;50.006;7.490;2022-09-01T15:45:03;6.70;;;3.13;;
9150;SDS011;4610;50.006;7.490;2022-09-01T15:47:32;4.30;;;3.00;;
9150;SDS011;4610;50.006;7.490;2022-09-01T15:49:59;5.50;;;2.73;;
9150;SDS011;4610;50.006;7.490;2022-09-01T15:52:25;8.83;;;3.40;;